Off Duty — WDI8426 — position and weather

sailwx.info

Track history (hours):
 
Tides and Currents Weather Stations Pressure Air Temp Water Temp Dewpoint Dewpoint Depression Visibility Wind Speed Wind Dir Waves Ship Positions

Off Duty

Owner: Paul S Mears Jr. trustee of the Paul S. Mears Revocable Trust DTD 3/20/91 as amended 2/7/00 and restated 110/18/08, Orlando, FL. More information available from US FCC via Universal Licensing System and Coast Guard Vessel Documentation Center.

Last reported at 2018-Jul-12 22:54 UTC. Time now 2018-Jul-21 03:34 UTC.
Position N 39°43' W 074°05'.
Warning: this ship's position is 8 days out of date.

Length 26 m.

Type: Pleasure craft. MMSI: 367738520.

Date/timePositionNaut miles runAvg speedWind from/ knotsBaromVisibWave heightAir tempDewpointWater temp
2018-Jul-12 22:54N 39°43' W 074°05'204 7.1
2018-Jul-11 18:13N 36°48' W 076°17'2 7.5
2018-Jul-11 18:00N 36°47' W 076°18'122 3.9
2018-Jul-10 10:45N 34°46' W 076°41'3 9.6
2018-Jul-10 10:29N 34°44' W 076°42'1 1.2
2018-Jul-10 10:00N 34°43' W 076°42'0 0.0
2018-Jul-10 09:30N 34°43' W 076°42'0 0.0
2018-Jul-10 09:00N 34°43' W 076°42'0 0.0
2018-Jul-10 08:30N 34°43' W 076°42'0 0.0
2018-Jul-10 08:00N 34°43' W 076°42'0 0.0
2018-Jul-10 07:27N 34°43' W 076°42'0 0.0
2018-Jul-10 06:57N 34°43' W 076°42'0 0.0
2018-Jul-10 06:30N 34°43' W 076°42'0 0.0
2018-Jul-10 05:57N 34°43' W 076°42'0 0.0
2018-Jul-10 05:30N 34°43' W 076°42'0 0.0
2018-Jul-10 04:57N 34°43' W 076°42'0 0.0
2018-Jul-10 04:30N 34°43' W 076°42'0 0.0
2018-Jul-10 04:00N 34°43' W 076°42'0 0.0
2018-Jul-10 03:30N 34°43' W 076°42'0 0.0
2018-Jul-10 03:00N 34°43' W 076°42'0 0.0
2018-Jul-10 02:30N 34°43' W 076°42'0 0.0
2018-Jul-10 02:00N 34°43' W 076°42'0 0.0
2018-Jul-10 01:30N 34°43' W 076°42'0 0.0
2018-Jul-10 00:57N 34°43' W 076°42'0 0.0
2018-Jul-10 00:27N 34°43' W 076°42'0 0.0
2018-Jul-10 00:00N 34°43' W 076°42'0 0.0
2018-Jul-09 23:30N 34°43' W 076°42'0 0.0
2018-Jul-09 23:00N 34°43' W 076°42'0 0.0
2018-Jul-09 22:30N 34°43' W 076°42'0 0.0
2018-Jul-09 22:00N 34°43' W 076°42'0 0.0
2018-Jul-09 21:30N 34°43' W 076°42'0 0.0
2018-Jul-09 21:00N 34°43' W 076°42'0 0.0
2018-Jul-09 20:30N 34°43' W 076°42'0 0.0
2018-Jul-09 20:00N 34°43' W 076°42'0 0.0
2018-Jul-09 19:30N 34°43' W 076°42'0 0.0
2018-Jul-09 19:00N 34°43' W 076°42'0 0.0
2018-Jul-09 18:30N 34°43' W 076°42'0 0.0
2018-Jul-09 18:00N 34°43' W 076°42'0 0.0
2018-Jul-09 17:30N 34°43' W 076°42'0 0.0
2018-Jul-09 17:00N 34°43' W 076°42'0 0.0
2018-Jul-09 16:30N 34°43' W 076°42'0 0.0
2018-Jul-09 16:00N 34°43' W 076°42'0 0.0
2018-Jul-09 15:30N 34°43' W 076°42'0 0.0
2018-Jul-09 15:00N 34°43' W 076°42'0 0.0
2018-Jul-09 14:30N 34°43' W 076°42'0 0.0
2018-Jul-09 14:00N 34°43' W 076°42'0 0.0
2018-Jul-09 13:30N 34°43' W 076°42'0 0.0
2018-Jul-09 13:00N 34°43' W 076°42'0 0.0
2018-Jul-09 12:30N 34°43' W 076°42'0 0.0
2018-Jul-09 12:00N 34°43' W 076°42'0 0.0
2018-Jul-09 11:30N 34°43' W 076°42'0 0.0
2018-Jul-09 11:00N 34°43' W 076°42'0 0.0
2018-Jul-09 10:30N 34°43' W 076°42'0 0.0
2018-Jul-09 10:00N 34°43' W 076°42'0 0.0
2018-Jul-09 09:27N 34°43' W 076°42'0 0.0
2018-Jul-09 09:00N 34°43' W 076°42'0 0.0
2018-Jul-09 08:30N 34°43' W 076°42'0 0.0
2018-Jul-09 08:00N 34°43' W 076°42'0 0.0
2018-Jul-09 07:29N 34°43' W 076°42'0 0.0
2018-Jul-09 07:00N 34°43' W 076°42'0 0.0
2018-Jul-09 06:30N 34°43' W 076°42'0 0.0
2018-Jul-09 05:59N 34°43' W 076°42'0 0.0
2018-Jul-09 05:30N 34°43' W 076°42'0 0.0
2018-Jul-09 04:59N 34°43' W 076°42'0 0.0
2018-Jul-09 04:29N 34°43' W 076°42'0 0.0
2018-Jul-09 04:00N 34°43' W 076°42'0 0.0
2018-Jul-09 03:29N 34°43' W 076°42'0 0.0
2018-Jul-09 02:59N 34°43' W 076°42'0 0.0
2018-Jul-09 02:30N 34°43' W 076°42'0 0.0
2018-Jul-09 01:59N 34°43' W 076°42'0 0.0
2018-Jul-09 01:29N 34°43' W 076°42'0 0.0
2018-Jul-09 01:00N 34°43' W 076°42'0 0.0
2018-Jul-09 00:26N 34°43' W 076°42'0 0.0
2018-Jul-08 23:56N 34°43' W 076°42'0 0.0
2018-Jul-08 23:26N 34°43' W 076°42'0 0.0
2018-Jul-08 22:59N 34°43' W 076°42'0 0.0
2018-Jul-08 22:29N 34°43' W 076°42'0 0.0
2018-Jul-08 21:50N 34°43' W 076°42'0 0.0
2018-Jul-08 21:27N 34°43' W 076°42'0 0.0
2018-Jul-08 20:56N 34°43' W 076°42'0 0.0
2018-Jul-08 20:29N 34°43' W 076°42'0 0.0
2018-Jul-08 19:59N 34°43' W 076°42'0 0.0
2018-Jul-08 19:26N 34°43' W 076°42'0 0.0
2018-Jul-08 18:56N 34°43' W 076°42'0 0.0
2018-Jul-08 18:26N 34°43' W 076°42'0 0.0
2018-Jul-08 17:59N 34°43' W 076°42'0 0.0
2018-Jul-08 17:23N 34°43' W 076°42'0 0.0
2018-Jul-08 16:59N 34°43' W 076°42'0 0.0
2018-Jul-08 16:29N 34°43' W 076°42'0 0.0
2018-Jul-08 15:59N 34°43' W 076°42'0 0.0
2018-Jul-08 15:29N 34°43' W 076°42'0 0.0
2018-Jul-08 14:59N 34°43' W 076°42'0 0.0
2018-Jul-08 14:29N 34°43' W 076°42'0 0.0
2018-Jul-08 13:59N 34°43' W 076°42'0 0.0
2018-Jul-08 13:29N 34°43' W 076°42'0 0.0
2018-Jul-08 12:59N 34°43' W 076°42'0 0.0
2018-Jul-08 12:29N 34°43' W 076°42'0 0.0
2018-Jul-08 11:59N 34°43' W 076°42'0 0.0
2018-Jul-08 11:29N 34°43' W 076°42'0 0.0
2018-Jul-08 10:59N 34°43' W 076°42'0 0.0
2018-Jul-08 10:29N 34°43' W 076°42'0 0.0
2018-Jul-08 09:56N 34°43' W 076°42'0 0.0
2018-Jul-08 09:26N 34°43' W 076°42'0 0.0
2018-Jul-08 08:59N 34°43' W 076°42'0 0.0
2018-Jul-08 08:29N 34°43' W 076°42'0 0.0
2018-Jul-08 07:59N 34°43' W 076°42'0 0.0
2018-Jul-08 07:29N 34°43' W 076°42'0 0.0
2018-Jul-08 06:56N 34°43' W 076°42'0 0.0
2018-Jul-08 06:26N 34°43' W 076°42'0 0.0
2018-Jul-08 05:59N 34°43' W 076°42'0 0.0
2018-Jul-08 05:29N 34°43' W 076°42'0 0.0
2018-Jul-08 04:59N 34°43' W 076°42'0 0.0
2018-Jul-08 04:29N 34°43' W 076°42'0 0.0
2018-Jul-08 03:59N 34°43' W 076°42'0 0.0
2018-Jul-08 03:29N 34°43' W 076°42'0 0.0
2018-Jul-08 02:59N 34°43' W 076°42'0 0.0
2018-Jul-08 02:29N 34°43' W 076°42'0 0.0
2018-Jul-08 01:59N 34°43' W 076°42'0 0.0
2018-Jul-08 01:29N 34°43' W 076°42'0 0.0
2018-Jul-08 00:59N 34°43' W 076°42'0 0.0
2018-Jul-08 00:29N 34°43' W 076°42'0 0.0
2018-Jul-07 23:59N 34°43' W 076°42'0 0.0
2018-Jul-07 23:29N 34°43' W 076°42'0 0.0
2018-Jul-07 22:56N 34°43' W 076°42'0 0.0
2018-Jul-07 22:29N 34°43' W 076°42'0 0.0
2018-Jul-07 21:56N 34°43' W 076°42'0 0.0
2018-Jul-07 21:29N 34°43' W 076°42'0 0.0
2018-Jul-07 20:59N 34°43' W 076°42'0 0.0
2018-Jul-07 20:29N 34°43' W 076°42'0 0.0
2018-Jul-07 19:59N 34°43' W 076°42'0 0.0
2018-Jul-07 19:29N 34°43' W 076°42'0 0.0
2018-Jul-07 18:59N 34°43' W 076°42'0 0.0
2018-Jul-07 18:29N 34°43' W 076°42'0 0.0
2018-Jul-07 17:59N 34°43' W 076°42'0 0.0
2018-Jul-07 17:29N 34°43' W 076°42'0 0.0
2018-Jul-07 17:00N 34°43' W 076°42'0 0.1
2018-Jul-07 16:28N 34°43' W 076°42'0 0.0
2018-Jul-07 16:00N 34°43' W 076°42'1 1.1
2018-Jul-07 15:30N 34°43' W 076°42'  
Track history (hours):
 
Tides and Currents Weather Stations Pressure Air Temp Water Temp Dewpoint Dewpoint Depression Visibility Wind Speed Wind Dir Waves Ship Positions

Off Duty

Owner: Paul S Mears Jr. trustee of the Paul S. Mears Revocable Trust DTD 3/20/91 as amended 2/7/00 and restated 110/18/08, Orlando, FL. More information available from US FCC via Universal Licensing System and Coast Guard Vessel Documentation Center.

Last reported at 2018-Jul-12 22:54 UTC. Time now 2018-Jul-21 03:34 UTC.
Position N 39°43' W 074°05'.
Warning: this ship's position is 8 days out of date.

Length 26 m.

Type: Pleasure craft. MMSI: 367738520.

Date/timePositionNaut miles runAvg speedWind from/ knotsBaromVisibWave heightAir tempDewpointWater temp
2018-Jul-12 22:54N 39°43' W 074°05'204 7.1
2018-Jul-11 18:13N 36°48' W 076°17'2 7.5
2018-Jul-11 18:00N 36°47' W 076°18'122 3.9
2018-Jul-10 10:45N 34°46' W 076°41'3 9.6
2018-Jul-10 10:29N 34°44' W 076°42'1 1.2
2018-Jul-10 10:00N 34°43' W 076°42'0 0.0
2018-Jul-10 09:30N 34°43' W 076°42'0 0.0
2018-Jul-10 09:00N 34°43' W 076°42'0 0.0
2018-Jul-10 08:30N 34°43' W 076°42'0 0.0
2018-Jul-10 08:00N 34°43' W 076°42'0 0.0
2018-Jul-10 07:27N 34°43' W 076°42'0 0.0
2018-Jul-10 06:57N 34°43' W 076°42'0 0.0
2018-Jul-10 06:30N 34°43' W 076°42'0 0.0
2018-Jul-10 05:57N 34°43' W 076°42'0 0.0
2018-Jul-10 05:30N 34°43' W 076°42'0 0.0
2018-Jul-10 04:57N 34°43' W 076°42'0 0.0
2018-Jul-10 04:30N 34°43' W 076°42'0 0.0
2018-Jul-10 04:00N 34°43' W 076°42'0 0.0
2018-Jul-10 03:30N 34°43' W 076°42'0 0.0
2018-Jul-10 03:00N 34°43' W 076°42'0 0.0
2018-Jul-10 02:30N 34°43' W 076°42'0 0.0
2018-Jul-10 02:00N 34°43' W 076°42'0 0.0
2018-Jul-10 01:30N 34°43' W 076°42'0 0.0
2018-Jul-10 00:57N 34°43' W 076°42'0 0.0
2018-Jul-10 00:27N 34°43' W 076°42'0 0.0
2018-Jul-10 00:00N 34°43' W 076°42'0 0.0
2018-Jul-09 23:30N 34°43' W 076°42'0 0.0
2018-Jul-09 23:00N 34°43' W 076°42'0 0.0
2018-Jul-09 22:30N 34°43' W 076°42'0 0.0
2018-Jul-09 22:00N 34°43' W 076°42'0 0.0
2018-Jul-09 21:30N 34°43' W 076°42'0 0.0
2018-Jul-09 21:00N 34°43' W 076°42'0 0.0
2018-Jul-09 20:30N 34°43' W 076°42'0 0.0
2018-Jul-09 20:00N 34°43' W 076°42'0 0.0
2018-Jul-09 19:30N 34°43' W 076°42'0 0.0
2018-Jul-09 19:00N 34°43' W 076°42'0 0.0
2018-Jul-09 18:30N 34°43' W 076°42'0 0.0
2018-Jul-09 18:00N 34°43' W 076°42'0 0.0
2018-Jul-09 17:30N 34°43' W 076°42'0 0.0
2018-Jul-09 17:00N 34°43' W 076°42'0 0.0
2018-Jul-09 16:30N 34°43' W 076°42'0 0.0
2018-Jul-09 16:00N 34°43' W 076°42'0 0.0
2018-Jul-09 15:30N 34°43' W 076°42'0 0.0
2018-Jul-09 15:00N 34°43' W 076°42'0 0.0
2018-Jul-09 14:30N 34°43' W 076°42'0 0.0
2018-Jul-09 14:00N 34°43' W 076°42'0 0.0
2018-Jul-09 13:30N 34°43' W 076°42'0 0.0
2018-Jul-09 13:00N 34°43' W 076°42'0 0.0
2018-Jul-09 12:30N 34°43' W 076°42'0 0.0
2018-Jul-09 12:00N 34°43' W 076°42'0 0.0
2018-Jul-09 11:30N 34°43' W 076°42'0 0.0
2018-Jul-09 11:00N 34°43' W 076°42'0 0.0
2018-Jul-09 10:30N 34°43' W 076°42'0 0.0
2018-Jul-09 10:00N 34°43' W 076°42'0 0.0
2018-Jul-09 09:27N 34°43' W 076°42'0 0.0
2018-Jul-09 09:00N 34°43' W 076°42'0 0.0
2018-Jul-09 08:30N 34°43' W 076°42'0 0.0
2018-Jul-09 08:00N 34°43' W 076°42'0 0.0
2018-Jul-09 07:29N 34°43' W 076°42'0 0.0
2018-Jul-09 07:00N 34°43' W 076°42'0 0.0
2018-Jul-09 06:30N 34°43' W 076°42'0 0.0
2018-Jul-09 05:59N 34°43' W 076°42'0 0.0
2018-Jul-09 05:30N 34°43' W 076°42'0 0.0
2018-Jul-09 04:59N 34°43' W 076°42'0 0.0
2018-Jul-09 04:29N 34°43' W 076°42'0 0.0
2018-Jul-09 04:00N 34°43' W 076°42'0 0.0
2018-Jul-09 03:29N 34°43' W 076°42'0 0.0
2018-Jul-09 02:59N 34°43' W 076°42'0 0.0
2018-Jul-09 02:30N 34°43' W 076°42'0 0.0
2018-Jul-09 01:59N 34°43' W 076°42'0 0.0
2018-Jul-09 01:29N 34°43' W 076°42'0 0.0
2018-Jul-09 01:00N 34°43' W 076°42'0 0.0
2018-Jul-09 00:26N 34°43' W 076°42'0 0.0
2018-Jul-08 23:56N 34°43' W 076°42'0 0.0
2018-Jul-08 23:26N 34°43' W 076°42'0 0.0
2018-Jul-08 22:59N 34°43' W 076°42'0 0.0
2018-Jul-08 22:29N 34°43' W 076°42'0 0.0
2018-Jul-08 21:50N 34°43' W 076°42'0 0.0
2018-Jul-08 21:27N 34°43' W 076°42'0 0.0
2018-Jul-08 20:56N 34°43' W 076°42'0 0.0
2018-Jul-08 20:29N 34°43' W 076°42'0 0.0
2018-Jul-08 19:59N 34°43' W 076°42'0 0.0
2018-Jul-08 19:26N 34°43' W 076°42'0 0.0
2018-Jul-08 18:56N 34°43' W 076°42'0 0.0
2018-Jul-08 18:26N 34°43' W 076°42'0 0.0
2018-Jul-08 17:59N 34°43' W 076°42'0 0.0
2018-Jul-08 17:23N 34°43' W 076°42'0 0.0
2018-Jul-08 16:59N 34°43' W 076°42'0 0.0
2018-Jul-08 16:29N 34°43' W 076°42'0 0.0
2018-Jul-08 15:59N 34°43' W 076°42'0 0.0
2018-Jul-08 15:29N 34°43' W 076°42'0 0.0
2018-Jul-08 14:59N 34°43' W 076°42'0 0.0
2018-Jul-08 14:29N 34°43' W 076°42'0 0.0
2018-Jul-08 13:59N 34°43' W 076°42'0 0.0
2018-Jul-08 13:29N 34°43' W 076°42'0 0.0
2018-Jul-08 12:59N 34°43' W 076°42'0 0.0
2018-Jul-08 12:29N 34°43' W 076°42'0 0.0
2018-Jul-08 11:59N 34°43' W 076°42'0 0.0
2018-Jul-08 11:29N 34°43' W 076°42'0 0.0
2018-Jul-08 10:59N 34°43' W 076°42'0 0.0
2018-Jul-08 10:29N 34°43' W 076°42'0 0.0
2018-Jul-08 09:56N 34°43' W 076°42'0 0.0
2018-Jul-08 09:26N 34°43' W 076°42'0 0.0
2018-Jul-08 08:59N 34°43' W 076°42'0 0.0
2018-Jul-08 08:29N 34°43' W 076°42'0 0.0
2018-Jul-08 07:59N 34°43' W 076°42'0 0.0
2018-Jul-08 07:29N 34°43' W 076°42'0 0.0
2018-Jul-08 06:56N 34°43' W 076°42'0 0.0
2018-Jul-08 06:26N 34°43' W 076°42'0 0.0
2018-Jul-08 05:59N 34°43' W 076°42'0 0.0
2018-Jul-08 05:29N 34°43' W 076°42'0 0.0
2018-Jul-08 04:59N 34°43' W 076°42'0 0.0
2018-Jul-08 04:29N 34°43' W 076°42'0 0.0
2018-Jul-08 03:59N 34°43' W 076°42'0 0.0
2018-Jul-08 03:29N 34°43' W 076°42'0 0.0
2018-Jul-08 02:59N 34°43' W 076°42'0 0.0
2018-Jul-08 02:29N 34°43' W 076°42'0 0.0
2018-Jul-08 01:59N 34°43' W 076°42'0 0.0
2018-Jul-08 01:29N 34°43' W 076°42'0 0.0
2018-Jul-08 00:59N 34°43' W 076°42'0 0.0
2018-Jul-08 00:29N 34°43' W 076°42'0 0.0
2018-Jul-07 23:59N 34°43' W 076°42'0 0.0
2018-Jul-07 23:29N 34°43' W 076°42'0 0.0
2018-Jul-07 22:56N 34°43' W 076°42'0 0.0
2018-Jul-07 22:29N 34°43' W 076°42'0 0.0
2018-Jul-07 21:56N 34°43' W 076°42'0 0.0
2018-Jul-07 21:29N 34°43' W 076°42'0 0.0
2018-Jul-07 20:59N 34°43' W 076°42'0 0.0
2018-Jul-07 20:29N 34°43' W 076°42'0 0.0
2018-Jul-07 19:59N 34°43' W 076°42'0 0.0
2018-Jul-07 19:29N 34°43' W 076°42'0 0.0
2018-Jul-07 18:59N 34°43' W 076°42'0 0.0
2018-Jul-07 18:29N 34°43' W 076°42'0 0.0
2018-Jul-07 17:59N 34°43' W 076°42'0 0.0
2018-Jul-07 17:29N 34°43' W 076°42'0 0.0
2018-Jul-07 17:00N 34°43' W 076°42'0 0.1
2018-Jul-07 16:28N 34°43' W 076°42'0 0.0
2018-Jul-07 16:00N 34°43' W 076°42'1 1.1
2018-Jul-07 15:30N 34°43' W 076°42'  

Dump ship's entire track history